Time;durP1;ratioP1;P1;durP2;ratioP2;P2;SDS_P1;SDS_P2;PMS_P1;PMS_P2;Temp;Humidity;BMP_temperature;BMP_pressure;BME280_temperature;BME280_humidity;BME280_pressure;Samples;Min_cycle;Max_cycle;Signal;HPM_P1;HPM_P2
2022/11/09 00:00:00;;;;;;;;;0.00;0.00;;;;;22.41;46.21;100448.28;5019115;28;45654;-71
2022/11/09 00:02:26;;;;;;;;;1.67;1.00;;;;;22.42;46.04;100455.25;5018306;28;45778;-71
2022/11/09 00:04:51;;;;;;;;;0.67;0.00;;;;;22.42;46.66;100446.47;5018974;28;45489;-71
2022/11/09 00:07:16;;;;;;;;;0.00;0.00;;;;;22.42;46.51;100449.13;5018634;28;46215;-70
2022/11/09 00:09:42;;;;;;;;;0.33;0.33;;;;;22.42;46.39;100449.13;5018513;28;46390;-71
2022/11/09 00:12:07;;;;;;;;;1.33;1.33;;;;;22.43;46.28;100448.13;5018883;28;45398;-71
2022/11/09 00:14:34;;;;;;;;;0.67;0.67;;;;;22.43;46.09;100448.91;5018901;28;45223;-70
2022/11/09 00:17:00;;;;;;;;;0.00;0.00;;;;;22.44;46.39;100455.88;5018538;28;45982;-71
2022/11/09 00:19:26;;;;;;;;;0.00;0.00;;;;;22.44;46.37;100453.22;5017947;28;45280;-70
2022/11/09 00:21:51;;;;;;;;;0.67;0.67;;;;;22.37;46.24;100449.69;5012515;28;45437;-71
2022/11/09 00:24:16;;;;;;;;;0.00;0.00;;;;;22.44;46.05;100463.00;5015688;28;45468;-71
2022/11/09 00:26:42;;;;;;;;;2.00;0.67;;;;;22.46;46.18;100458.31;5031611;28;45964;-71
2022/11/09 00:29:08;;;;;;;;;1.33;1.33;;;;;22.46;45.91;100463.63;5038424;28;45474;-71
2022/11/09 00:31:33;;;;;;;;;0.00;0.00;;;;;22.47;46.51;100462.63;5038592;28;45335;-70
2022/11/09 00:33:58;;;;;;;;;0.00;0.00;;;;;22.37;46.38;100453.19;5038613;28;45547;-71
2022/11/09 00:36:25;;;;;;;;;0.33;0.33;;;;;22.40;46.05;100463.38;5024084;28;47064;-71
2022/11/09 00:38:53;;;;;;;;;0.00;0.00;;;;;22.46;46.04;100471.56;5038007;28;45451;-71
2022/11/09 00:41:19;;;;;;;;;0.67;0.00;;;;;22.46;46.26;100475.03;5038486;28;45377;-71
2022/11/09 00:43:45;;;;;;;;;0.67;0.67;;;;;22.47;46.00;100476.69;5038168;28;45464;-71
2022/11/09 00:46:11;;;;;;;;;0.67;0.67;;;;;22.45;46.25;100478.72;5037828;28;47100;-71
2022/11/09 00:48:36;;;;;;;;;0.67;0.67;;;;;22.47;46.42;100483.81;5045949;28;45371;-71
2022/11/09 00:51:02;;;;;;;;;1.33;0.00;;;;;22.37;45.99;100476.22;5041763;28;45396;-71
2022/11/09 00:53:28;;;;;;;;;2.00;0.00;;;;;22.47;46.01;100484.66;5042084;28;45388;-71
2022/11/09 00:56:00;;;;;;;;;0.00;0.00;;;;;22.47;45.74;100484.66;5041284;28;46199;-71
2022/11/09 00:58:28;;;;;;;;;0.00;0.00;;;;;22.45;45.83;100478.72;5043250;28;45256;-71
2022/11/09 01:00:54;;;;;;;;;1.00;1.00;;;;;22.44;46.59;100479.72;5038246;28;45856;-71
2022/11/09 01:03:21;;;;;;;;;0.00;0.00;;;;;22.44;45.92;100484.19;5040091;28;45381;-71
2022/11/09 01:05:46;;;;;;;;;0.00;0.00;;;;;22.44;46.34;100481.53;5036988;28;47315;-71
2022/11/09 01:08:12;;;;;;;;;0.67;0.00;;;;;22.43;46.40;100479.94;5037544;28;45244;-70
2022/11/09 01:10:43;;;;;;;;;0.33;0.00;;;;;22.43;46.01;100475.41;5037922;28;45351;-70
2022/11/09 01:13:10;;;;;;;;;0.00;0.00;;;;;22.43;46.36;100471.97;5038024;28;45309;-71
2022/11/09 01:15:44;;;;;;;;;1.00;1.00;;;;;22.44;46.08;100473.59;5037267;28;48146;-71
2022/11/09 01:18:09;;;;;;;;;0.33;0.33;;;;;22.44;46.17;100490.31;5037753;28;45348;-71
2022/11/09 01:20:41;;;;;;;;;0.67;0.00;;;;;22.44;46.31;100486.84;5037482;28;45414;-71
2022/11/09 01:23:08;;;;;;;;;0.00;0.00;;;;;22.43;46.05;100487.88;5044831;28;45524;-71
2022/11/09 01:25:33;;;;;;;;;0.00;0.00;;;;;22.41;46.56;100488.06;5037251;28;47006;-71
2022/11/09 01:27:59;;;;;;;;;0.00;0.00;;;;;22.41;46.00;100488.06;5037676;28;45757;-71
2022/11/09 01:30:25;;;;;;;;;1.00;1.00;;;;;22.40;46.54;100487.22;5037596;28;45623;-71
2022/11/09 01:32:50;;;;;;;;;1.00;0.00;;;;;22.40;46.21;100489.09;5037139;28;45501;-71
2022/11/09 01:35:16;;;;;;;;;0.00;0.00;;;;;22.38;45.89;100488.44;5031632;28;45849;-70
2022/11/09 01:37:41;;;;;;;;;0.00;0.00;;;;;22.40;46.53;100494.38;5028847;28;45317;-71
2022/11/09 01:40:07;;;;;;;;;0.00;0.00;;;;;22.39;46.11;100498.03;5037434;28;45309;-72
2022/11/09 01:42:35;;;;;;;;;0.00;0.00;;;;;22.39;46.55;100498.84;5037756;28;45383;-70
2022/11/09 01:45:16;;;;;;;;;1.67;0.00;;;;;22.40;46.51;100503.13;5038475;28;45390;-71
2022/11/09 01:47:43;;;;;;;;;0.00;0.00;;;;;22.39;46.10;100501.50;5044736;28;45519;-71
2022/11/09 01:50:12;;;;;;;;;2.00;0.00;;;;;22.33;46.06;100496.16;5037010;28;45530;-71
2022/11/09 01:52:43;;;;;;;;;0.00;0.00;;;;;22.33;46.03;100491.66;5039163;28;45256;-70
2022/11/09 01:55:12;;;;;;;;;0.00;0.00;;;;;22.33;46.23;100496.97;5040941;28;47408;-71
2022/11/09 01:57:43;;;;;;;;;0.00;0.00;;;;;22.38;46.56;100504.34;5036864;28;45333;-70
2022/11/09 02:00:13;;;;;;;;;0.33;0.00;;;;;22.40;46.45;100505.78;5046361;28;45493;-71
2022/11/09 02:02:43;;;;;;;;;0.00;0.00;;;;;22.33;46.28;100496.97;5035567;28;45544;-71
2022/11/09 02:05:16;;;;;;;;;0.00;0.00;;;;;22.41;46.27;100509.25;5032272;28;45414;-71
2022/11/09 02:07:42;;;;;;;;;0.67;0.67;;;;;22.42;46.04;100516.22;5034425;28;45571;-70
2022/11/09 02:10:25;;;;;;;;;0.00;0.00;;;;;22.36;46.05;100504.53;5036679;28;45485;-71
2022/11/09 02:12:52;;;;;;;;;0.67;0.67;;;;;22.40;46.49;100505.78;5024214;28;45450;-70
2022/11/09 02:15:17;;;;;;;;;0.00;0.00;;;;;22.40;46.27;100512.94;5036808;28;46229;-70
2022/11/09 02:17:44;;;;;;;;;0.00;0.00;;;;;22.41;45.76;100506.59;5034993;28;45423;-70
2022/11/09 02:20:14;;;;;;;;;0.33;0.33;;;;;22.44;46.41;100510.72;5036290;28;45547;-70
2022/11/09 02:22:40;;;;;;;;;0.00;0.00;;;;;22.44;46.22;100508.06;5036345;28;45500;-70
2022/11/09 02:25:07;;;;;;;;;0.00;0.00;;;;;22.44;46.23;100508.88;5037240;28;47194;-69
2022/11/09 02:27:34;;;;;;;;;0.33;0.33;;;;;22.43;45.98;100501.94;5040144;28;45693;-70
2022/11/09 02:30:00;;;;;;;;;0.67;0.00;;;;;22.44;45.72;100502.75;5036723;28;45351;-70
2022/11/09 02:32:28;;;;;;;;;0.00;0.00;;;;;22.44;45.92;100500.09;5036489;28;45373;-70
2022/11/09 02:34:54;;;;;;;;;0.00;0.00;;;;;22.43;46.44;100503.78;5033025;28;47542;-70
2022/11/09 02:37:37;;;;;;;;;0.00;0.00;;;;;22.43;45.84;100507.22;5025405;28;45814;-70
2022/11/09 02:40:13;;;;;;;;;1.33;0.00;;;;;22.38;46.23;100505.16;5036588;28;45426;-70
2022/11/09 02:42:38;;;;;;;;;1.00;1.00;;;;;22.40;46.26;100505.78;5036279;28;45169;-70
2022/11/09 02:45:04;;;;;;;;;0.67;0.00;;;;;22.40;46.20;100503.13;5036047;28;45850;-70
2022/11/09 02:47:29;;;;;;;;;0.00;0.00;;;;;22.40;45.89;100500.47;5035892;28;45399;-70
2022/11/09 02:49:56;;;;;;;;;0.33;0.00;;;;;22.41;46.44;100511.91;5035930;28;45301;-70
2022/11/09 02:52:22;;;;;;;;;0.67;0.00;;;;;22.40;45.87;100508.44;5035898;28;45527;-70
2022/11/09 02:54:48;;;;;;;;;0.00;0.00;;;;;22.40;46.39;100497.81;5035914;28;47246;-70
2022/11/09 02:57:13;;;;;;;;;0.00;0.00;;;;;22.39;45.95;100503.34;5035502;28;45430;-70
2022/11/09 02:59:38;;;;;;;;;0.00;0.00;;;;;22.29;46.07;100490.41;5036654;28;45316;-70
2022/11/09 03:02:04;;;;;;;;;2.67;0.00;;;;;22.37;46.13;100498.22;5036437;28;45493;-70
2022/11/09 03:04:29;;;;;;;;;0.67;0.33;;;;;22.37;46.47;100505.38;5039543;28;48428;-70
2022/11/09 03:06:54;;;;;;;;;0.00;0.00;;;;;22.37;45.88;100505.38;5036086;28;45393;-70
2022/11/09 03:09:20;;;;;;;;;1.00;0.00;;;;;22.35;46.50;100510.84;5036527;28;45332;-70
2022/11/09 03:11:45;;;;;;;;;0.33;0.00;;;;;22.35;45.90;100513.47;5036258;28;45356;-69
2022/11/09 03:14:11;;;;;;;;;0.67;0.67;;;;;22.36;45.90;100520.44;5035989;28;46358;-70
2022/11/09 03:16:37;;;;;;;;;0.00;0.00;;;;;22.36;45.82;100511.66;5035956;28;45471;-70
2022/11/09 03:19:03;;;;;;;;;0.67;0.00;;;;;22.32;46.36;100513.88;5035006;28;45459;-70
2022/11/09 03:21:28;;;;;;;;;0.00;0.00;;;;;22.35;46.05;100512.69;5036022;28;45656;-70
2022/11/09 03:23:54;;;;;;;;;0.00;0.00;;;;;22.35;45.90;100520.63;5035628;28;51473;-70
2022/11/09 03:26:20;;;;;;;;;0.00;0.00;;;;;22.35;45.98;100518.00;5040692;28;45344;-70
2022/11/09 03:28:46;;;;;;;;;0.00;0.00;;;;;22.34;46.25;100514.50;5035702;28;45413;-70
2022/11/09 03:31:12;;;;;;;;;2.33;0.00;;;;;22.34;46.07;100525.13;5035383;28;45514;-70
2022/11/09 03:33:37;;;;;;;;;0.67;0.00;;;;;22.35;46.43;100520.63;5034983;28;47277;-70
2022/11/09 03:36:03;;;;;;;;;0.33;0.33;;;;;22.35;45.99;100526.75;5023491;28;45301;-70
2022/11/09 03:38:28;;;;;;;;;0.00;0.00;;;;;22.36;46.52;100519.59;5033667;28;45352;-70
2022/11/09 03:40:54;;;;;;;;;0.00;0.00;;;;;22.35;45.81;100526.75;5035698;28;45376;-70
2022/11/09 03:43:19;;;;;;;;;2.33;0.00;;;;;22.37;45.95;100532.69;5035206;28;45379;-71
2022/11/09 03:45:46;;;;;;;;;0.00;0.00;;;;;22.35;46.06;100525.94;5035483;28;45373;-70
2022/11/09 03:48:12;;;;;;;;;0.67;0.67;;;;;22.38;45.93;100533.50;5035425;28;45367;-70
2022/11/09 03:50:39;;;;;;;;;0.00;0.00;;;;;22.36;46.16;100532.88;5035364;28;45417;-70
2022/11/09 03:53:05;;;;;;;;;0.67;0.67;;;;;22.39;45.78;100535.13;5035153;28;45699;-70
2022/11/09 03:55:31;;;;;;;;;0.00;0.00;;;;;22.39;45.79;100538.63;5035004;28;45384;-69
2022/11/09 03:57:56;;;;;;;;;1.67;1.00;;;;;22.39;46.38;100535.13;5035206;28;45401;-71
2022/11/09 04:00:22;;;;;;;;;1.67;0.00;;;;;22.35;46.12;100534.69;5035110;28;45376;-71
2022/11/09 04:02:48;;;;;;;;;0.00;0.00;;;;;22.40;46.11;100528.84;5034933;28;46392;-71
2022/11/09 04:05:14;;;;;;;;;0.00;0.00;;;;;22.39;46.40;100530.66;5034809;28;45435;-70
2022/11/09 04:07:40;;;;;;;;;0.67;0.00;;;;;22.39;45.71;100525.38;5040195;28;45389;-71
2022/11/09 04:10:06;;;;;;;;;3.00;0.00;;;;;22.40;45.76;100531.50;5042740;28;45314;-70
2022/11/09 04:12:31;;;;;;;;;0.00;0.00;;;;;22.40;46.13;100534.16;5034856;28;46124;-70
2022/11/09 04:14:57;;;;;;;;;0.00;0.00;;;;;22.40;46.21;100531.50;5035080;28;45375;-70
2022/11/09 04:17:22;;;;;;;;;0.00;0.00;;;;;22.38;46.19;100534.31;5036839;28;45494;-70
2022/11/09 04:19:48;;;;;;;;;0.00;0.00;;;;;22.29;46.31;100525.69;5035490;28;45342;-70
2022/11/09 04:22:13;;;;;;;;;0.00;0.00;;;;;22.28;45.91;100524.03;5034806;28;45909;-71
2022/11/09 04:24:38;;;;;;;;;0.67;0.33;;;;;22.38;46.32;100542.25;5034885;28;47156;-71
2022/11/09 04:27:04;;;;;;;;;0.67;0.67;;;;;22.38;45.86;100552.03;5022419;28;45365;-69
2022/11/09 04:29:29;;;;;;;;;0.00;0.00;;;;;22.37;45.84;100551.25;5018803;28;45339;-70
2022/11/09 04:31:55;;;;;;;;;0.67;0.67;;;;;22.37;45.71;100558.38;5024225;28;51251;-70
2022/11/09 04:34:20;;;;;;;;;0.00;0.00;;;;;22.28;46.01;100557.66;5014038;28;45441;-71
2022/11/09 04:36:45;;;;;;;;;2.33;0.00;;;;;22.34;45.79;100570.16;5002113;28;45920;-69
2022/11/09 04:39:11;;;;;;;;;1.00;0.00;;;;;22.36;45.79;100578.75;5014920;28;45370;-71
2022/11/09 04:41:36;;;;;;;;;0.00;0.00;;;;;22.36;46.10;100575.28;5016832;28;45451;-70
2022/11/09 04:44:02;;;;;;;;;0.00;0.00;;;;;22.34;46.19;100572.81;5018353;28;45386;-70
2022/11/09 04:46:27;;;;;;;;;0.00;0.00;;;;;22.34;45.98;100587.91;5018310;28;45444;-71
2022/11/09 04:48:53;;;;;;;;;0.33;0.33;;;;;22.34;45.88;100582.59;5004295;28;45362;-71
2022/11/09 04:51:18;;;;;;;;;0.00;0.00;;;;;22.34;45.78;100588.72;5018324;28;45996;-70
2022/11/09 04:53:44;;;;;;;;;0.00;0.00;;;;;22.27;45.80;100583.38;5018276;28;45360;-71
2022/11/09 04:56:10;;;;;;;;;0.00;0.00;;;;;22.34;46.40;100594.03;5018468;28;45389;-70
2022/11/09 04:58:36;;;;;;;;;0.00;0.00;;;;;22.32;45.64;100588.09;5018374;28;45377;-71
2022/11/09 05:01:07;;;;;;;;;0.67;0.00;;;;;22.33;46.27;100583.63;5012360;28;46963;-70
2022/11/09 05:03:33;;;;;;;;;0.00;0.00;;;;;22.27;45.91;100585.19;5014823;28;45395;-72
2022/11/09 05:05:58;;;;;;;;;0.67;0.00;;;;;22.32;45.82;100589.91;5018240;28;45306;-70
2022/11/09 05:08:23;;;;;;;;;0.00;0.00;;;;;22.29;45.79;100586.66;5017692;28;45426;-69
2022/11/09 05:10:49;;;;;;;;;2.00;0.33;;;;;22.32;45.81;100593.41;5018068;28;47089;-70
2022/11/09 05:13:15;;;;;;;;;0.00;0.00;;;;;22.25;46.23;100574.75;5018085;28;45410;-70
2022/11/09 05:15:40;;;;;;;;;1.33;0.00;;;;;22.34;45.98;100590.53;5017446;28;45469;-70
2022/11/09 05:18:06;;;;;;;;;1.00;1.00;;;;;22.34;45.83;100588.72;5018012;28;45420;-71
2022/11/09 05:20:32;;;;;;;;;1.00;0.00;;;;;22.34;46.27;100594.03;5016431;28;45481;-71
2022/11/09 05:25:43;;;;;;;;;0.00;0.00;;;;;22.34;46.28;100596.69;5017672;28;45325;-70
2022/11/09 05:28:09;;;;;;;;;0.33;0.33;;;;;22.35;46.21;100602.81;5037341;28;45376;-70
2022/11/09 05:30:34;;;;;;;;;0.00;0.00;;;;;22.34;45.66;100609.94;5037244;28;47073;-70
2022/11/09 05:32:59;;;;;;;;;0.00;0.00;;;;;22.36;46.29;100612.38;5036931;28;45521;-70
2022/11/09 05:35:25;;;;;;;;;0.00;0.00;;;;;22.35;46.29;100608.91;5021476;28;45438;-71
2022/11/09 05:37:50;;;;;;;;;0.00;0.00;;;;;22.34;45.75;100601.16;5030669;28;45400;-70
2022/11/09 05:40:18;;;;;;;;;0.00;0.00;;;;;22.36;45.78;100599.13;5036818;28;46082;-70
2022/11/09 05:42:44;;;;;;;;;0.00;0.00;;;;;22.29;45.69;100599.06;5037231;28;45289;-70
2022/11/09 05:45:12;;;;;;;;;0.00;0.00;;;;;22.35;45.88;100608.09;5036859;28;45431;-70
2022/11/09 05:47:38;;;;;;;;;0.00;0.00;;;;;22.35;45.88;100613.41;5041093;28;45332;-70
2022/11/09 05:50:04;;;;;;;;;2.67;0.00;;;;;22.35;45.75;100614.19;5032603;28;46495;-70
2022/11/09 05:52:30;;;;;;;;;0.33;0.00;;;;;22.34;45.95;100622.34;5036690;28;45296;-70
2022/11/09 05:54:55;;;;;;;;;0.00;0.00;;;;;22.34;46.21;100627.66;5037097;28;45478;-71
2022/11/09 05:57:21;;;;;;;;;0.00;0.00;;;;;22.33;45.84;100626.81;5036453;28;45383;-70
2022/11/09 05:59:46;;;;;;;;;1.00;0.00;;;;;22.28;45.90;100618.63;5036816;28;46313;-70
2022/11/09 06:02:11;;;;;;;;;0.67;0.00;;;;;22.33;45.61;100628.69;5036942;28;45403;-70
2022/11/09 06:04:37;;;;;;;;;0.00;0.00;;;;;22.32;46.21;100635.81;5039426;28;45210;-70
2022/11/09 06:07:02;;;;;;;;;2.00;0.00;;;;;22.33;45.96;100626.81;5036969;28;45415;-70
2022/11/09 06:09:27;;;;;;;;;0.00;0.00;;;;;22.30;46.23;100619.28;5046958;28;45988;-70
2022/11/09 06:11:53;;;;;;;;;0.00;0.00;;;;;22.28;45.81;100618.63;5036659;28;45433;-70
2022/11/09 06:14:18;;;;;;;;;0.00;0.00;;;;;22.33;45.90;100621.53;5036766;28;45455;-70
2022/11/09 06:16:43;;;;;;;;;0.00;0.00;;;;;22.32;46.18;100625.19;5036889;28;45458;-70
2022/11/09 06:19:08;;;;;;;;;0.00;0.00;;;;;22.33;46.24;100631.34;5036401;28;47555;-70
2022/11/09 06:21:34;;;;;;;;;2.33;0.00;;;;;22.28;46.27;100623.91;5036669;28;45431;-71
2022/11/09 06:23:59;;;;;;;;;0.00;0.00;;;;;22.31;45.93;100631.50;5036803;28;45623;-71
2022/11/09 06:26:24;;;;;;;;;0.33;0.33;;;;;22.32;45.66;100640.28;5040603;28;45375;-70
2022/11/09 06:28:50;;;;;;;;;0.67;0.00;;;;;22.28;45.79;100642.47;5036551;28;46303;-70
2022/11/09 06:31:16;;;;;;;;;1.50;0.00;;;;;22.31;46.14;100646.56;5034742;28;48510;-70
2022/11/09 06:33:41;;;;;;;;;0.00;0.00;;;;;22.31;46.15;100651.88;5036939;28;45479;-70
2022/11/09 06:36:08;;;;;;;;;0.00;0.00;;;;;22.28;45.82;100645.94;5023854;28;45517;-70
2022/11/09 06:38:34;;;;;;;;;0.33;0.00;;;;;22.31;46.29;100660.66;5035223;28;45763;-70
2022/11/09 06:40:59;;;;;;;;;0.00;0.00;;;;;22.31;45.60;100662.47;5041601;28;45519;-70
2022/11/09 06:43:26;;;;;;;;;0.00;0.00;;;;;22.31;45.86;100670.44;5039292;28;45282;-70
2022/11/09 06:45:52;;;;;;;;;0.67;0.00;;;;;22.23;46.00;100656.28;5036143;28;45344;-70
2022/11/09 06:48:18;;;;;;;;;0.00;0.00;;;;;22.20;46.14;100653.22;5035832;28;46921;-70
2022/11/09 06:50:44;;;;;;;;;0.00;0.00;;;;;22.32;45.76;100670.25;5036332;28;45373;-70
2022/11/09 06:53:11;;;;;;;;;0.00;0.00;;;;;22.33;46.30;100666.59;5036439;28;45332;-71
2022/11/09 06:55:37;;;;;;;;;0.00;0.00;;;;;22.33;46.22;100663.13;5041694;28;45519;-70
2022/11/09 06:58:14;;;;;;;;;0.00;0.00;;;;;22.33;45.77;100655.19;5031231;28;47351;-70
2022/11/09 07:00:40;;;;;;;;;1.00;0.00;;;;;22.22;45.97;100641.41;5035065;28;45282;-69
2022/11/09 07:03:06;;;;;;;;;1.00;1.00;;;;;22.33;46.34;100660.50;5035545;28;45435;-70
2022/11/09 07:05:31;;;;;;;;;1.67;0.00;;;;;22.33;46.23;100657.84;5037819;28;45234;-70
2022/11/09 07:07:57;;;;;;;;;0.00;0.00;;;;;22.34;46.19;100670.88;5041285;28;46457;-70
2022/11/09 07:10:23;;;;;;;;;0.00;0.00;;;;;22.30;45.60;100664.34;5040806;28;45411;-70
2022/11/09 07:12:48;;;;;;;;;1.33;0.00;;;;;22.35;46.13;100687.63;5036415;28;45364;-70
2022/11/09 07:15:13;;;;;;;;;0.00;0.00;;;;;22.33;45.64;100682.50;5036238;28;46022;-70
2022/11/09 07:17:40;;;;;;;;;0.33;0.00;;;;;22.34;45.78;100692.09;5035538;28;46062;-70
2022/11/09 07:20:07;;;;;;;;;1.00;0.00;;;;;22.35;45.73;100696.38;5035893;28;45328;-69
2022/11/09 07:22:38;;;;;;;;;0.00;0.00;;;;;22.15;45.63;100665.16;5035881;28;45412;-74
2022/11/09 07:25:08;;;;;;;;;0.00;0.00;;;;;22.37;45.48;100699.69;5036073;28;45372;-70
2022/11/09 07:27:34;;;;;;;;;1.00;1.00;;;;;22.37;45.48;100712.94;5039149;28;45296;-69
2022/11/09 07:29:59;;;;;;;;;0.00;0.00;;;;;22.27;45.21;100696.50;5035529;28;45446;-70
2022/11/09 07:32:24;;;;;;;;;1.33;0.00;;;;;22.30;45.03;100701.44;5035607;28;45439;-70
2022/11/09 07:34:50;;;;;;;;;0.00;0.00;;;;;22.25;44.93;100714.41;5033633;28;45356;-70
2022/11/09 07:37:15;;;;;;;;;3.67;1.00;;;;;22.28;44.66;100719.31;5023798;28;49997;-70
2022/11/09 07:39:40;;;;;;;;;1.00;0.00;;;;;22.28;44.90;100714.03;5034720;28;46466;-70
2022/11/09 07:42:06;;;;;;;;;1.33;1.00;;;;;22.29;45.36;100726.28;5027049;28;45403;-70
2022/11/09 07:44:31;;;;;;;;;0.33;0.00;;;;;22.31;45.69;100737.50;5035744;28;45308;-70
2022/11/09 07:46:56;;;;;;;;;1.00;1.00;;;;;22.33;45.17;100726.75;5035352;28;46188;-71
2022/11/09 07:49:22;;;;;;;;;1.00;0.00;;;;;22.33;45.89;100738.16;5044154;28;45426;-70
2022/11/09 07:51:47;;;;;;;;;0.00;0.00;;;;;22.35;45.24;100735.34;5032179;28;45295;-69
2022/11/09 07:54:12;;;;;;;;;0.33;0.33;;;;;22.29;45.24;100729.75;5034437;28;45518;-70
2022/11/09 07:56:38;;;;;;;;;0.33;0.00;;;;;22.38;45.60;100751.66;5034724;28;55098;-69
2022/11/09 07:59:03;;;;;;;;;1.00;1.00;;;;;22.39;45.75;100748.03;5034615;28;45853;-70
2022/11/09 08:01:29;;;;;;;;;0.00;0.00;;;;;22.40;45.84;100756.81;5035257;28;45340;-69
2022/11/09 08:03:54;;;;;;;;;0.00;0.00;;;;;22.40;45.38;100760.25;5034883;28;45325;-70
2022/11/09 08:06:21;;;;;;;;;1.00;0.67;;;;;22.44;45.26;100762.53;5033754;28;47194;-70
2022/11/09 08:08:48;;;;;;;;;1.00;1.00;;;;;22.06;45.33;100709.50;5033975;28;45453;-69
2022/11/09 08:11:14;;;;;;;;;1.00;1.00;;;;;22.33;45.58;100753.25;5034923;28;45412;-69
2022/11/09 08:13:39;;;;;;;;;0.00;0.00;;;;;22.40;45.31;100762.91;5034905;28;45431;-70
2022/11/09 08:16:05;;;;;;;;;0.00;0.00;;;;;22.42;45.42;100768.03;5036428;28;45384;-70
2022/11/09 08:18:30;;;;;;;;;0.00;0.00;;;;;22.50;45.23;100783.03;5038272;28;45538;-70
2022/11/09 08:20:56;;;;;;;;;0.33;0.33;;;;;22.50;45.37;100781.19;5038599;28;45339;-69
2022/11/09 08:23:21;;;;;;;;;0.00;0.00;;;;;22.46;45.23;100777.25;5037586;28;45217;-70
2022/11/09 08:25:48;;;;;;;;;0.33;0.00;;;;;22.52;45.62;100797.75;5036159;28;46265;-69
2022/11/09 08:28:17;;;;;;;;;1.00;1.00;;;;;22.44;45.37;100792.53;5018253;28;45413;-70
2022/11/09 08:30:44;;;;;;;;;0.00;0.00;;;;;22.47;45.72;100797.47;5014289;28;45504;-69
2022/11/09 08:33:10;;;;;;;;;1.00;0.00;;;;;22.54;45.20;100810.78;5017733;28;45460;-70
2022/11/09 08:35:36;;;;;;;;;2.33;0.67;;;;;22.60;45.66;100817.19;5011521;28;46314;-69
2022/11/09 08:38:03;;;;;;;;;1.00;1.00;;;;;22.61;45.57;100830.25;5017889;28;45373;-70
2022/11/09 08:40:30;;;;;;;;;1.00;1.00;;;;;22.62;45.27;100828.44;5018319;28;45416;-70
2022/11/09 08:43:03;;;;;;;;;1.00;1.00;;;;;22.63;45.44;100836.22;5018556;28;45482;-69
2022/11/09 08:45:31;;;;;;;;;3.00;0.67;;;;;22.65;45.66;100833.38;5017786;28;45653;-69
2022/11/09 08:47:58;;;;;;;;;0.00;0.00;;;;;22.67;45.52;100833.19;5018417;28;45393;-70
2022/11/09 08:50:25;;;;;;;;;0.00;0.00;;;;;22.68;45.68;100834.84;5017878;28;45386;-69
2022/11/09 08:52:50;;;;;;;;;0.00;0.00;;;;;22.69;45.64;100841.81;5017879;28;45827;-70
2022/11/09 08:55:15;;;;;;;;;0.00;0.00;;;;;22.69;45.67;100837.28;5017735;28;47881;-69
2022/11/09 08:57:41;;;;;;;;;2.00;0.00;;;;;22.68;45.24;100843.63;5017992;28;45304;-69
2022/11/09 09:00:07;;;;;;;;;2.00;0.33;;;;;22.69;45.17;100845.25;5025297;28;45413;-70
2022/11/09 09:02:32;;;;;;;;;0.00;0.00;;;;;22.61;45.30;100846.16;5018011;28;45367;-69
2022/11/09 09:04:57;;;;;;;;;0.00;0.00;;;;;22.70;45.52;100848.75;5016554;28;46058;-70
2022/11/09 09:07:23;;;;;;;;;0.00;0.00;;;;;22.70;45.41;100851.41;5017305;28;45469;-71
2022/11/09 09:09:48;;;;;;;;;0.00;0.00;;;;;22.70;45.80;100851.41;5017945;28;45318;-71
2022/11/09 09:12:14;;;;;;;;;1.00;0.00;;;;;22.71;45.34;100853.06;5018017;28;45357;-70
2022/11/09 09:14:39;;;;;;;;;0.00;0.00;;;;;22.69;45.67;100850.56;5017711;28;46082;-70
2022/11/09 09:17:04;;;;;;;;;0.00;0.00;;;;;22.72;45.22;100857.34;5017364;28;45365;-70
2022/11/09 09:19:30;;;;;;;;;1.00;0.00;;;;;22.70;45.70;100860.19;5017632;28;45263;-70
2022/11/09 09:21:56;;;;;;;;;0.67;0.00;;;;;22.71;45.53;100861.03;5017559;28;45345;-70
2022/11/09 09:24:22;;;;;;;;;2.00;0.00;;;;;22.71;45.80;100868.97;5017390;28;46147;-70
2022/11/09 09:26:47;;;;;;;;;2.00;0.00;;;;;22.72;45.19;100867.97;5026166;28;45333;-71
2022/11/09 09:29:13;;;;;;;;;0.67;0.67;;;;;22.67;45.53;100871.13;5038409;28;45403;-70
2022/11/09 09:31:40;;;;;;;;;0.00;0.00;;;;;22.71;45.76;100871.63;5045798;28;45510;-70
2022/11/09 09:34:05;;;;;;;;;1.33;0.00;;;;;22.72;45.53;100874.09;5020256;28;46242;-70
2022/11/09 09:36:31;;;;;;;;;0.00;0.00;;;;;22.68;45.55;100877.28;5022868;28;45310;-70
2022/11/09 09:38:57;;;;;;;;;0.67;0.00;;;;;22.66;45.22;100874.00;5045879;28;45449;-70
2022/11/09 09:41:44;;;;;;;;;1.67;0.00;;;;;22.67;45.54;100880.91;5037437;28;45581;-70
2022/11/09 09:44:22;;;;;;;;;4.00;0.33;;;;;22.73;45.88;100893.50;5036926;28;47423;-71
2022/11/09 09:47:14;;;;;;;;;2.33;0.67;;;;;22.73;45.21;100899.63;5036874;28;45498;-70
2022/11/09 09:49:53;;;;;;;;;0.00;0.00;;;;;22.74;45.30;100895.16;5036831;28;45419;-70
2022/11/09 09:52:39;;;;;;;;;0.00;0.00;;;;;22.75;45.38;100896.78;5036773;28;45444;-70
2022/11/09 09:55:26;;;;;;;;;1.00;1.00;;;;;22.75;45.14;100899.44;5036639;28;45471;-71
2022/11/09 09:58:01;;;;;;;;;0.00;0.00;;;;;22.63;45.60;100875.19;5036932;28;45450;-70
2022/11/09 10:00:27;;;;;;;;;1.67;0.00;;;;;22.78;45.40;100912.31;5036136;28;45422;-70
2022/11/09 10:02:53;;;;;;;;;0.00;0.00;;;;;22.79;45.15;100915.81;5036439;28;45630;-70
2022/11/09 10:05:26;;;;;;;;;2.67;0.00;;;;;22.80;45.70;100922.75;5036312;28;47155;-70
2022/11/09 10:07:55;;;;;;;;;0.33;0.33;;;;;22.81;45.69;100924.41;5035837;28;45376;-70
2022/11/09 10:10:35;;;;;;;;;1.75;1.00;;;;;22.80;45.56;100923.56;5036973;28;45509;-68
2022/11/09 10:13:37;;;;;;;;;1.00;0.00;;;;;22.80;45.28;100934.19;5036346;28;45440;-70
2022/11/09 10:16:58;;;;;;;;;0.00;0.00;;;;;22.80;45.43;100942.13;5036571;28;47433;-70
2022/11/09 10:19:54;;;;;;;;;2.00;1.00;;;;;22.82;45.40;100947.28;4990171;28;45527;-70
2022/11/09 10:22:41;;;;;;;;;0.00;0.00;;;;;22.83;45.21;100952.38;4994192;28;45420;-70
2022/11/09 10:25:23;;;;;;;;;1.67;0.00;;;;;22.83;45.38;100963.00;4993762;28;45529;-69
2022/11/09 10:27:55;;;;;;;;;2.00;1.00;;;;;22.78;45.41;100941.50;4993694;28;46941;-70
2022/11/09 10:30:23;;;;;;;;;0.00;0.00;;;;;22.72;45.37;100942.22;4994102;28;45493;-70
2022/11/09 10:33:14;;;;;;;;;0.33;0.33;;;;;22.84;45.61;100967.31;4993785;28;45493;-70
2022/11/09 10:35:44;;;;;;;;;0.67;0.67;;;;;22.85;45.20;100968.94;4993692;28;45582;-70
2022/11/09 10:38:20;;;;;;;;;1.67;0.67;;;;;22.84;45.17;100961.19;4993201;28;47533;-70
2022/11/09 10:40:57;;;;;;;;;0.00;0.00;;;;;22.85;45.53;100970.75;4994183;28;45454;-70
2022/11/09 10:43:23;;;;;;;;;0.00;0.00;;;;;22.86;45.23;100975.06;4994123;28;45501;-70
2022/11/09 10:45:59;;;;;;;;;0.00;0.00;;;;;22.85;45.40;100971.59;4994077;28;45428;-70
2022/11/09 10:48:36;;;;;;;;;1.33;0.00;;;;;22.82;45.90;100971.16;4993625;28;46160;-70
2022/11/09 10:51:02;;;;;;;;;2.00;0.67;;;;;22.87;45.74;100986.50;4998965;28;45781;-69
2022/11/09 10:53:30;;;;;;;;;1.00;0.00;;;;;22.84;45.21;100983.22;4994158;28;45460;-70
2022/11/09 10:56:19;;;;;;;;;1.33;0.00;;;;;22.85;45.24;100984.84;5030909;28;45420;-70
2022/11/09 10:58:50;;;;;;;;;0.33;0.00;;;;;22.82;45.81;100979.09;5035713;28;45328;-70
2022/11/09 11:01:24;;;;;;;;;2.33;0.33;;;;;22.86;45.75;100985.69;5035862;28;45383;-70
2022/11/09 11:03:52;;;;;;;;;1.00;0.67;;;;;22.81;45.10;100980.09;5035182;28;45487;-70
2022/11/09 11:06:20;;;;;;;;;0.67;0.67;;;;;22.86;45.37;100988.34;5035904;28;45374;-70
2022/11/09 11:08:48;;;;;;;;;0.33;0.33;;;;;22.84;45.18;100991.19;5035633;28;46129;-70
2022/11/09 11:11:19;;;;;;;;;0.67;0.00;;;;;22.85;45.41;100989.34;5035851;28;45388;-70
2022/11/09 11:13:45;;;;;;;;;0.00;0.00;;;;;22.84;45.71;100993.00;5035815;28;45345;-70
2022/11/09 11:16:32;;;;;;;;;0.33;0.33;;;;;22.85;45.44;100997.28;5035351;28;45365;-70
2022/11/09 11:18:59;;;;;;;;;0.00;0.00;;;;;22.84;45.34;101007.09;5035359;28;45986;-70
2022/11/09 11:21:26;;;;;;;;;0.33;0.33;;;;;22.84;45.55;101000.97;5042057;28;45459;-70
2022/11/09 11:24:15;;;;;;;;;0.00;0.00;;;;;22.87;45.53;100997.13;5035904;28;45428;-70
2022/11/09 11:27:07;;;;;;;;;0.00;0.00;;;;;22.80;45.64;101000.50;5039472;28;45368;-70
2022/11/09 11:29:47;;;;;;;;;0.00;0.00;;;;;22.83;45.29;101005.44;5035024;28;46214;-70